CheckWX is a tool to help pilots better visualize weather data.  It is not intended as a substitute for an official pre-flight weather briefing.

18:05:33 UTC

KJYO METAR
Leesburg Executive Airport
Leesburg, Virginia, USA
Current

11 mins ago

KJYO 171755Z AUTO 30017G29KT 10SM OVC044 12/03 A2971 RMK AO2
Observed
Oct-17 @ 17:55 UTC
Wind
  • 300° at 17 KTS
  • Gusting to 29 KTS
Visibility
10 SM
Flight Rules
VFR
Cloud Levels
  • Overcast at 4,400' AGL
Temperature
12°C / 54°F
Dewpoint
C / 37°F
Humidity
54%
Altimeter
29.71" Hg
Pressure
1006.12 hPa
Previous

31 mins ago

KJYO 171735Z AUTO 29019G26KT 10SM OVC046 12/04 A2971 RMK AO2
Observed
Oct-17 @ 17:35 UTC
Wind
  • 290° at 19 KTS
  • Gusting to 26 KTS
Visibility
10 SM
Flight Rules
VFR
Cloud Levels
  • Overcast at 4,600' AGL
Temperature
12°C / 54°F
Dewpoint
C / 39°F
Humidity
58%
Altimeter
29.71" Hg
Pressure
1006.12 hPa
Previous

51 mins ago

KJYO 171715Z AUTO 29020G26KT 10SM OVC046 12/04 A2971 RMK AO2
Observed
Oct-17 @ 17:15 UTC
Wind
  • 290° at 20 KTS
  • Gusting to 26 KTS
Visibility
10 SM
Flight Rules
VFR
Cloud Levels
  • Overcast at 4,600' AGL
Temperature
12°C / 54°F
Dewpoint
C / 39°F
Humidity
58%
Altimeter
29.71" Hg
Pressure
1006.12 hPa